createdAt,value
2018-03-03T00:03:21.158Z,-8.10
2018-03-03T00:08:12.071Z,-8.10
2018-03-03T00:13:02.961Z,-8.10
2018-03-03T00:17:53.901Z,-8.20
2018-03-03T00:22:44.803Z,-8.20
2018-03-03T00:27:35.763Z,-8.30
2018-03-03T00:32:26.656Z,-8.30
2018-03-03T00:37:17.552Z,-8.30
2018-03-03T00:42:08.450Z,-8.40
2018-03-03T00:47:00.091Z,-8.50
2018-03-03T00:51:51.721Z,-8.50
2018-03-03T00:56:43.369Z,-8.60
2018-03-03T01:01:34.253Z,-8.60
2018-03-03T01:06:25.240Z,-8.60
2018-03-03T01:11:16.124Z,-8.60
2018-03-03T01:16:07.779Z,-8.70
2018-03-03T01:20:58.710Z,-8.70
2018-03-03T01:25:49.664Z,-8.70
2018-03-03T01:30:40.616Z,-8.70
2018-03-03T01:35:31.511Z,-8.80
2018-03-03T01:40:22.500Z,-8.80
2018-03-03T01:45:13.420Z,-8.80
2018-03-03T01:50:04.314Z,-8.80
2018-03-03T01:54:55.225Z,-8.90
2018-03-03T01:59:46.112Z,-8.90
2018-03-03T02:04:37.752Z,-9.00
2018-03-03T02:09:29.407Z,-9.00
2018-03-03T02:14:20.321Z,-9.00
2018-03-03T02:19:11.214Z,-9.00
2018-03-03T02:24:02.920Z,-9.10
2018-03-03T02:28:53.800Z,-9.10
2018-03-03T02:33:44.701Z,-9.10
2018-03-03T02:38:36.381Z,-9.10
2018-03-03T02:43:27.301Z,-9.20
2018-03-03T02:48:18.200Z,-9.20
2018-03-03T02:53:09.118Z,-9.20
2018-03-03T02:58:00.018Z,-9.20
2018-03-03T03:02:51.697Z,-9.30
2018-03-03T03:07:42.625Z,-9.30
2018-03-03T03:12:33.557Z,-9.30
2018-03-03T03:17:24.454Z,-9.30
2018-03-03T03:22:15.345Z,-9.40
2018-03-03T03:32:24.155Z,-9.50
2018-03-03T03:37:30.022Z,-9.50
2018-03-03T03:42:20.918Z,-9.50
2018-03-03T03:47:11.820Z,-9.50
2018-03-03T03:52:02.721Z,-9.60
2018-03-03T03:56:53.622Z,-9.60
2018-03-03T04:01:45.251Z,-9.70
2018-03-03T04:06:36.895Z,-9.70
2018-03-03T04:11:28.618Z,-9.70
2018-03-03T04:16:19.518Z,-9.70
2018-03-03T04:21:10.402Z,-9.70
2018-03-03T04:26:01.351Z,-9.80
2018-03-03T04:30:52.248Z,-9.80
2018-03-03T04:35:43.133Z,-9.80
2018-03-03T04:40:34.761Z,-9.90
2018-03-03T04:45:26.388Z,-9.90
2018-03-03T04:50:19.045Z,-9.90
2018-03-03T04:55:19.325Z,-9.90
2018-03-03T05:00:16.438Z,-9.90
2018-03-03T05:05:13.588Z,-10.00
2018-03-03T05:10:04.485Z,-10.00
2018-03-03T05:15:01.549Z,-10.00
2018-03-03T05:19:58.425Z,-10.00
2018-03-03T05:24:59.343Z,-10.00
2018-03-03T05:30:11.110Z,-10.10
2018-03-03T05:40:27.547Z,-10.10
2018-03-03T05:45:24.614Z,-10.10
2018-03-03T05:50:19.538Z,-10.20
2018-03-03T05:55:11.173Z,-10.20
2018-03-03T06:05:26.702Z,-10.30
2018-03-03T06:10:18.336Z,-10.30
2018-03-03T06:15:10.025Z,-10.30
2018-03-03T06:20:01.096Z,-10.30
2018-03-03T06:24:52.721Z,-10.30
2018-03-03T06:29:43.701Z,-10.40
2018-03-03T06:34:34.633Z,-10.30
2018-03-03T06:39:25.524Z,-10.30
2018-03-03T06:44:16.413Z,-10.30
2018-03-03T06:49:08.335Z,-10.30
2018-03-03T06:53:59.325Z,-10.30
2018-03-03T06:58:50.226Z,-10.20
2018-03-03T07:03:41.162Z,-10.20
2018-03-03T07:08:33.801Z,-10.10
2018-03-03T07:13:24.770Z,-10.10
2018-03-03T07:18:15.679Z,-10.00
2018-03-03T07:23:06.585Z,-9.90
2018-03-03T07:27:57.518Z,-9.80
2018-03-03T07:32:48.413Z,-9.80
2018-03-03T07:37:39.323Z,-9.70
2018-03-03T07:42:30.229Z,-9.50
2018-03-03T07:47:21.130Z,-9.50
2018-03-03T07:52:12.813Z,-9.30
2018-03-03T07:57:10.965Z,-9.30
2018-03-03T08:02:01.856Z,-9.10
2018-03-03T08:06:53.492Z,-8.90
2018-03-03T08:11:45.128Z,-8.80
2018-03-03T08:16:36.773Z,-8.70
2018-03-03T08:21:28.416Z,-8.50
2018-03-03T08:26:26.273Z,-8.50
2018-03-03T08:31:18.644Z,-8.20
2018-03-03T08:36:17.117Z,-7.90
2018-03-03T08:41:08.009Z,-7.90
2018-03-03T08:45:58.932Z,-7.70
2018-03-03T08:50:50.567Z,-7.30
2018-03-03T08:55:41.465Z,-7.30
2018-03-03T09:00:32.344Z,-7.10
2018-03-03T09:05:23.990Z,-6.60
2018-03-03T09:10:14.880Z,-6.70
2018-03-03T09:15:05.773Z,-6.40
2018-03-03T09:19:56.672Z,-6.20
2018-03-03T09:24:47.565Z,-6.10
2018-03-03T09:29:38.461Z,-5.90
2018-03-03T09:34:30.108Z,-5.70
2018-03-03T09:39:21.744Z,-5.60
2018-03-03T09:44:13.384Z,-5.50
2018-03-03T09:49:04.349Z,-5.50
2018-03-03T09:53:55.253Z,-5.40
2018-03-03T09:58:46.160Z,-5.30
2018-03-03T10:03:37.108Z,-5.20
2018-03-03T10:08:27.993Z,-5.10
2018-03-03T10:13:18.888Z,-5.00
2018-03-03T10:18:10.607Z,-4.90
2018-03-03T10:23:01.500Z,-4.90
2018-03-03T10:27:52.410Z,-4.90
2018-03-03T10:32:43.296Z,-4.80
2018-03-03T10:37:34.176Z,-4.70
2018-03-03T10:42:26.545Z,-4.50
2018-03-03T10:47:18.225Z,-4.40
2018-03-03T10:52:09.131Z,-4.40
2018-03-03T10:57:00.018Z,-4.30
2018-03-03T11:01:51.656Z,-3.90
2018-03-03T11:06:43.301Z,-3.60
2018-03-03T11:11:34.232Z,-3.60
2018-03-03T11:16:25.183Z,-3.30
2018-03-03T11:21:16.096Z,-2.80
2018-03-03T11:26:06.980Z,-2.30
2018-03-03T11:30:57.864Z,-1.70
2018-03-03T11:35:48.857Z,-1.00
2018-03-03T11:40:39.764Z,-0.30
2018-03-03T11:45:30.661Z,0.40
2018-03-03T11:50:21.617Z,1.10
2018-03-03T11:55:12.561Z,1.70
2018-03-03T12:00:03.449Z,2.30
2018-03-03T12:04:54.345Z,2.90
2018-03-03T12:09:45.424Z,3.40
2018-03-03T12:14:36.361Z,3.80
2018-03-03T12:19:28.022Z,4.70
2018-03-03T12:24:18.918Z,4.70
2018-03-03T12:29:10.626Z,5.50
2018-03-03T12:34:01.577Z,5.50
2018-03-03T12:38:53.209Z,6.10
2018-03-03T12:43:44.880Z,6.30
2018-03-03T12:48:35.791Z,6.30
2018-03-03T12:53:26.729Z,6.40
2018-03-03T12:58:17.617Z,6.40
2018-03-03T13:03:08.517Z,6.30
2018-03-03T13:08:00.153Z,6.20
2018-03-03T13:12:51.803Z,6.10
2018-03-03T13:17:42.704Z,6.00
2018-03-03T13:22:34.347Z,5.90
2018-03-03T13:27:25.978Z,5.70
2018-03-03T13:32:17.612Z,5.70
2018-03-03T13:37:09.240Z,5.60
2018-03-03T13:42:00.873Z,5.40
2018-03-03T13:46:52.496Z,5.30
2018-03-03T13:51:43.384Z,5.30
2018-03-03T13:56:34.270Z,5.30
2018-03-03T14:01:25.152Z,5.20
2018-03-03T14:06:16.044Z,5.00
2018-03-03T14:11:06.949Z,4.90
2018-03-03T14:15:57.845Z,4.80
2018-03-03T14:20:48.818Z,4.50
2018-03-03T14:25:39.792Z,4.30
2018-03-03T14:30:30.685Z,4.10
2018-03-03T14:35:22.320Z,3.90
2018-03-03T14:40:13.949Z,3.70
2018-03-03T14:45:05.568Z,3.50
2018-03-03T14:49:56.452Z,3.50
2018-03-03T14:54:47.364Z,3.40
2018-03-03T14:59:38.245Z,3.20
2018-03-03T15:04:29.873Z,2.80
2018-03-03T15:09:21.500Z,2.60
2018-03-03T15:14:13.145Z,2.40
2018-03-03T15:19:04.798Z,2.20
2018-03-03T15:23:55.695Z,2.20
2018-03-03T15:28:47.343Z,2.10
2018-03-03T15:33:38.314Z,2.00
2018-03-03T15:38:29.212Z,2.10
2018-03-03T15:43:20.145Z,2.10
2018-03-03T15:48:11.054Z,2.00
2018-03-03T15:53:02.000Z,1.90
2018-03-03T15:57:53.000Z,1.80
2018-03-03T16:02:44.736Z,1.70
2018-03-03T16:07:35.705Z,1.70
2018-03-03T16:12:27.428Z,1.30
2018-03-03T16:17:18.356Z,1.20
2018-03-03T16:22:09.981Z,0.60
2018-03-03T16:27:00.874Z,0.60
2018-03-03T16:31:51.761Z,0.30
2018-03-03T16:36:42.702Z,0.00
2018-03-03T16:41:33.584Z,-0.30
2018-03-03T16:46:24.537Z,-0.60
2018-03-03T16:51:15.475Z,-0.80
2018-03-03T16:56:06.417Z,-1.00
2018-03-03T17:00:57.263Z,-1.20
2018-03-03T17:05:48.176Z,-1.40
2018-03-03T17:10:39.106Z,-1.60
2018-03-03T17:15:30.050Z,-1.80
2018-03-03T17:20:20.929Z,-2.00
2018-03-03T17:25:12.644Z,-2.30
2018-03-03T17:30:03.537Z,-2.30
2018-03-03T17:34:54.426Z,-2.40
2018-03-03T17:39:47.053Z,-2.60
2018-03-03T17:49:58.154Z,-3.00
2018-03-03T17:54:49.224Z,-3.00
2018-03-03T17:59:40.148Z,-3.10
2018-03-03T18:04:31.097Z,-3.20
2018-03-03T18:09:22.009Z,-3.30
2018-03-03T18:14:12.923Z,-3.40
2018-03-03T18:19:03.850Z,-3.50
2018-03-03T18:23:54.737Z,-3.60
2018-03-03T18:28:45.741Z,-3.70
2018-03-03T18:33:37.698Z,-3.90
2018-03-03T18:38:28.695Z,-3.90
2018-03-03T18:43:20.328Z,-4.10
2018-03-03T18:48:11.957Z,-4.20
2018-03-03T18:53:02.845Z,-4.20
2018-03-03T18:57:53.782Z,-4.30
2018-03-03T19:02:44.677Z,-4.30
2018-03-03T19:07:35.565Z,-4.40
2018-03-03T19:12:26.460Z,-4.50
2018-03-03T19:17:18.097Z,-4.70
2018-03-03T19:22:09.725Z,-4.70
2018-03-03T19:27:01.353Z,-4.80
2018-03-03T19:31:52.244Z,-4.80
2018-03-03T19:36:43.147Z,-4.90
2018-03-03T19:41:34.781Z,-5.00
2018-03-03T19:46:25.697Z,-5.00
2018-03-03T19:51:16.593Z,-5.10
2018-03-03T19:56:07.488Z,-5.10
2018-03-03T20:00:59.129Z,-5.20
2018-03-03T20:05:50.761Z,-5.30
2018-03-03T20:10:42.398Z,-5.30
2018-03-03T20:15:34.060Z,-5.40
2018-03-03T20:20:24.973Z,-5.40
2018-03-03T20:25:15.879Z,-5.40
2018-03-03T20:30:07.522Z,-5.50
2018-03-03T20:34:58.426Z,-5.50
2018-03-03T20:39:50.140Z,-5.50
2018-03-03T20:44:41.045Z,-5.60
2018-03-03T20:49:31.959Z,-5.50
2018-03-03T20:54:22.959Z,-5.60
2018-03-03T20:59:13.853Z,-5.60
2018-03-03T21:04:04.849Z,-5.60
2018-03-03T21:08:56.585Z,-5.70
2018-03-03T21:13:48.228Z,-5.70
2018-03-03T21:18:39.956Z,-5.70
2018-03-03T21:23:30.944Z,-5.80
2018-03-03T21:28:21.881Z,-5.80
2018-03-03T21:33:12.883Z,-5.80
2018-03-03T21:38:03.804Z,-5.80
2018-03-03T21:42:54.753Z,-5.90
2018-03-03T21:47:45.758Z,-5.90
2018-03-03T21:52:38.247Z,-6.00
2018-03-03T21:57:29.933Z,-6.00
2018-03-03T22:02:21.352Z,-6.00
2018-03-03T23:31:34.240Z,-6.10
2018-03-03T23:36:25.154Z,-6.80
2018-03-03T23:41:16.837Z,-6.80
2018-03-03T23:46:08.475Z,-6.80
2018-03-03T23:51:00.165Z,-6.80
2018-03-03T23:55:51.078Z,-6.80
